Time;durP1;ratioP1;P1;durP2;ratioP2;P2;SDS_P1;SDS_P2;PMS_P1;PMS_P2;Temp;Humidity;BMP_temperature;BMP_pressure;BME280_temperature;BME280_humidity;BME280_pressure;Samples;Min_cycle;Max_cycle;Signal;HPM_P1;HPM_P2
2023/11/10 00:01:51;;;;;;;4.18;3.97;;;;;;;6.58;100.00;99092.88;6084277;23;20037;-70
2023/11/10 00:04:19;;;;;;;5.22;4.82;;;;;;;6.86;100.00;99135.50;6080755;23;20045;-70
2023/11/10 00:06:46;;;;;;;3.85;3.67;;;;;;;6.90;100.00;99137.81;6081998;23;20033;-70
2023/11/10 00:09:16;;;;;;;3.90;3.70;;;;;;;6.94;100.00;99148.88;6066210;23;20032;-71
2023/11/10 00:11:43;;;;;;;4.00;3.80;;;;;;;6.93;100.00;99137.59;6087136;23;20038;-70
2023/11/10 00:14:10;;;;;;;4.03;3.83;;;;;;;6.57;100.00;99067.72;6053667;23;20657;-70
2023/11/10 00:16:44;;;;;;;4.93;4.72;;;;;;;6.66;100.00;99072.38;6084147;23;20073;-70
2023/11/10 00:19:13;;;;;;;4.20;3.90;;;;;;;7.07;100.00;99109.81;6055202;23;20089;-71
2023/11/10 00:21:40;;;;;;;4.13;3.92;;;;;;;7.04;100.00;99100.44;6089610;23;20485;-71
2023/11/10 00:24:06;;;;;;;4.15;3.95;;;;;;;6.71;100.00;99036.41;6031675;23;20517;-71
2023/11/10 00:26:34;;;;;;;4.95;4.75;;;;;;;7.01;100.00;99077.13;6093603;23;20037;-70
2023/11/10 00:29:01;;;;;;;4.00;3.80;;;;;;;7.03;100.00;99070.06;6053672;23;20096;-70
2023/11/10 00:31:27;;;;;;;3.70;3.50;;;;;;;6.41;100.00;98979.22;6090904;23;20014;-70
2023/11/10 00:33:54;;;;;;;3.58;3.47;;;;;;;7.09;100.00;99071.44;6086724;23;20587;-70
2023/11/10 00:36:23;;;;;;;4.57;4.38;;;;;;;7.12;100.00;99073.88;6031596;23;20045;-70
2023/11/10 00:38:50;;;;;;;4.25;3.95;;;;;;;7.16;100.00;99081.38;6090566;23;20701;-72
2023/11/10 00:41:19;;;;;;;3.90;3.70;;;;;;;7.16;100.00;99093.59;6080476;23;20036;-70
2023/11/10 00:43:45;;;;;;;4.00;3.80;;;;;;;7.13;100.00;99094.59;6091988;23;20021;-69
2023/11/10 00:46:12;;;;;;;6.03;4.20;;;;;;;7.16;100.00;99094.44;6062094;23;20030;-69
2023/11/10 00:48:40;;;;;;;4.22;4.00;;;;;;;6.87;100.00;99046.72;6082041;23;20123;-69
2023/11/10 00:51:06;;;;;;;3.67;3.58;;;;;;;6.15;100.00;98934.84;6061361;23;20584;-70
2023/11/10 00:53:33;;;;;;;3.50;3.40;;;;;;;6.73;100.00;99031.94;6082558;23;20481;-72
2023/11/10 00:55:59;;;;;;;3.58;3.45;;;;;;;7.22;100.00;99113.22;6061621;23;20026;-69
2023/11/10 00:58:27;;;;;;;5.10;4.90;;;;;;;7.12;100.00;99095.56;6089258;23;20035;-69
2023/11/10 01:00:54;;;;;;;3.80;3.70;;;;;;;6.71;100.00;99022.56;6086756;23;20508;-70
2023/11/10 01:03:20;;;;;;;5.53;4.47;;;;;;;6.79;100.00;99042.00;6093635;23;20086;-69
2023/11/10 01:05:47;;;;;;;4.10;3.90;;;;;;;7.07;100.00;99075.91;6025324;23;20137;-69
2023/11/10 01:08:14;;;;;;;4.25;4.05;;;;;;;7.08;100.00;99062.78;6081887;23;20002;-69
2023/11/10 01:10:40;;;;;;;5.13;4.00;;;;;;;6.96;100.00;99024.44;6081520;23;20094;-70
2023/11/10 01:13:07;;;;;;;3.60;3.50;;;;;;;7.13;100.00;99058.09;6062098;23;20038;-69
2023/11/10 01:15:33;;;;;;;3.70;3.60;;;;;;;7.16;100.00;99057.06;6091351;23;20036;-69
2023/11/10 01:18:00;;;;;;;3.83;3.63;;;;;;;7.12;100.00;99030.34;6032762;23;20102;-71
2023/11/10 01:20:26;;;;;;;5.25;5.00;;;;;;;7.11;100.00;99031.25;6088988;23;20021;-69
2023/11/10 01:22:54;;;;;;;4.70;4.40;;;;;;;7.05;100.00;99018.63;6042903;23;20044;-70
2023/11/10 01:25:20;;;;;;;3.70;3.60;;;;;;;6.48;100.00;98938.00;6081326;23;20021;-70
2023/11/10 01:27:47;;;;;;;4.38;4.13;;;;;;;7.00;100.00;99015.50;6057586;23;20027;-69
2023/11/10 01:30:13;;;;;;;3.90;3.70;;;;;;;6.86;100.00;98998.13;6081121;23;20057;-70
2023/11/10 01:32:41;;;;;;;4.32;4.03;;;;;;;6.57;100.00;98953.91;6099481;23;20431;-70
2023/11/10 01:35:07;;;;;;;3.78;3.67;;;;;;;6.78;100.00;98993.38;6086337;23;20036;-69
2023/11/10 01:37:34;;;;;;;3.80;3.60;;;;;;;7.03;100.00;99036.13;6060907;23;20118;-71
2023/11/10 01:40:02;;;;;;;3.97;3.70;;;;;;;7.05;100.00;99047.31;6095335;23;20129;-71
2023/11/10 01:42:28;;;;;;;5.15;4.95;;;;;;;6.86;100.00;99013.75;6032952;23;20112;-71
2023/11/10 01:44:55;;;;;;;4.00;3.80;;;;;;;7.12;100.00;99051.22;6090178;23;20124;-70
2023/11/10 01:47:22;;;;;;;4.07;3.80;;;;;;;7.13;100.00;99055.47;6048636;23;20455;-70
2023/11/10 01:49:49;;;;;;;8.52;4.18;;;;;;;7.15;100.00;99058.81;6086051;23;20033;-70
2023/11/10 01:52:15;;;;;;;3.75;3.55;;;;;;;6.95;100.00;99020.97;6087020;23;20021;-71
2023/11/10 01:54:42;;;;;;;4.13;3.92;;;;;;;6.87;100.00;99012.00;6059662;23;20044;-70
2023/11/10 01:57:09;;;;;;;3.80;3.60;;;;;;;7.06;100.00;99048.19;6090058;23;20029;-70
2023/11/10 01:59:41;;;;;;;4.18;3.97;;;;;;;6.61;100.00;98969.34;6053526;23;20030;-70
2023/11/10 02:02:09;;;;;;;3.65;3.55;;;;;;;6.59;100.00;98970.28;6085959;23;20049;-70
2023/11/10 02:04:36;;;;;;;4.90;4.53;;;;;;;6.99;100.00;99039.88;6046252;23;20449;-70
2023/11/10 02:07:02;;;;;;;3.80;3.60;;;;;;;7.07;100.00;99058.47;6088656;23;20036;-70
2023/11/10 02:09:29;;;;;;;4.00;3.80;;;;;;;7.07;100.00;99057.66;6060657;23;20041;-70
2023/11/10 02:11:55;;;;;;;4.43;4.22;;;;;;;7.02;100.00;99057.97;6079524;23;20666;-70
2023/11/10 02:14:22;;;;;;;5.15;4.95;;;;;;;6.95;100.00;99056.66;6059533;23;20097;-70
2023/11/10 02:16:48;;;;;;;4.53;4.32;;;;;;;6.72;100.00;99032.88;6078559;23;20888;-70
2023/11/10 02:19:15;;;;;;;3.72;3.63;;;;;;;6.35;100.00;98990.91;6057300;23;20509;-69
2023/11/10 02:21:43;;;;;;;3.70;3.60;;;;;;;6.86;100.00;99073.75;6080966;23;20045;-70
2023/11/10 02:24:12;;;;;;;3.95;3.75;;;;;;;6.88;100.00;99084.91;6050820;23;20450;-69
2023/11/10 02:26:41;;;;;;;4.00;3.80;;;;;;;6.72;100.00;99069.38;6084358;23;20105;-70
2023/11/10 02:29:07;;;;;;;3.65;3.47;;;;;;;6.87;100.00;99091.03;6049441;23;20080;-70
2023/11/10 02:31:34;;;;;;;3.90;3.70;;;;;;;6.90;100.00;99095.25;6082499;23;20034;-70
2023/11/10 02:34:00;;;;;;;4.00;3.80;;;;;;;6.67;100.00;99060.16;6054096;23;20049;-70
2023/11/10 02:36:29;;;;;;;5.13;4.93;;;;;;;6.93;100.00;99097.66;6080753;23;20039;-70
2023/11/10 02:38:55;;;;;;;4.22;4.03;;;;;;;6.91;100.00;99089.91;6049071;23;20034;-70
2023/11/10 02:41:22;;;;;;;4.10;3.90;;;;;;;6.84;100.00;99074.78;6080255;23;20033;-70
2023/11/10 02:43:48;;;;;;;4.03;3.83;;;;;;;6.71;100.00;99054.66;6053832;23;20085;-70
2023/11/10 02:46:15;;;;;;;3.63;3.53;;;;;;;7.03;100.00;99098.75;6080012;23;20657;-70
2023/11/10 02:48:42;;;;;;;4.03;3.83;;;;;;;7.13;100.00;99104.22;6080089;23;20026;-70
2023/11/10 02:51:08;;;;;;;7.63;3.90;;;;;;;6.89;100.00;99057.06;6088034;23;20026;-70
2023/11/10 02:53:35;;;;;;;4.97;4.68;;;;;;;6.63;100.00;98998.75;6057328;23;20480;-71
2023/11/10 02:56:01;;;;;;;4.50;4.10;;;;;;;6.86;100.00;99026.81;6081605;23;20089;-69
2023/11/10 02:58:30;;;;;;;5.57;5.28;;;;;;;7.08;100.00;99047.13;6081272;23;20033;-69
2023/11/10 03:00:57;;;;;;;4.15;3.95;;;;;;;6.77;100.00;98980.44;6065725;23;20084;-70
2023/11/10 03:03:23;;;;;;;3.97;3.78;;;;;;;7.25;100.00;99042.59;6083226;23;20135;-69
2023/11/10 03:05:50;;;;;;;4.13;3.92;;;;;;;7.26;100.00;99039.88;6052929;23;20497;-69
2023/11/10 03:08:16;;;;;;;3.67;3.58;;;;;;;7.21;100.00;99039.34;6083651;23;20586;-69
2023/11/10 03:10:45;;;;;;;3.95;3.78;;;;;;;6.84;100.00;98980.91;6055338;23;20045;-69
2023/11/10 03:13:11;;;;;;;6.75;3.85;;;;;;;7.32;100.00;99041.25;6083940;23;20078;-70
2023/11/10 03:15:38;;;;;;;3.78;3.65;;;;;;;7.33;100.00;99045.53;6057174;23;20045;-69
2023/11/10 03:18:05;;;;;;;3.90;3.70;;;;;;;7.31;100.00;99040.41;6076754;23;20034;-69
2023/11/10 03:20:31;;;;;;;5.05;4.85;;;;;;;7.23;100.00;99026.19;6078795;23;20046;-70
2023/11/10 03:22:58;;;;;;;3.72;3.63;;;;;;;7.32;100.00;99038.66;6072578;23;20025;-69
2023/11/10 03:25:24;;;;;;;4.22;3.90;;;;;;;7.30;100.00;99049.19;6053807;23;20048;-70
2023/11/10 03:27:51;;;;;;;4.57;4.28;;;;;;;6.81;100.00;98961.06;6089202;23;20029;-70
2023/11/10 03:30:18;;;;;;;3.78;3.65;;;;;;;7.24;100.00;99035.72;6018254;23;20049;-69
2023/11/10 03:32:46;;;;;;;4.10;3.90;;;;;;;7.26;100.00;99044.28;6085542;23;20025;-69
2023/11/10 03:35:13;;;;;;;3.70;3.60;;;;;;;7.13;100.00;99013.75;6048045;23;20407;-69
2023/11/10 03:37:39;;;;;;;4.00;3.80;;;;;;;7.11;100.00;99015.63;6083475;23;20022;-69
2023/11/10 03:40:06;;;;;;;4.07;3.88;;;;;;;7.07;100.00;98988.06;6056194;23;20026;-70
2023/11/10 03:42:33;;;;;;;5.00;4.80;;;;;;;7.39;100.00;99025.06;6078715;23;20036;-69
2023/11/10 03:44:59;;;;;;;3.97;3.78;;;;;;;7.42;100.00;99012.75;6060919;23;20055;-70
2023/11/10 03:47:25;;;;;;;3.90;3.75;;;;;;;7.42;100.00;99010.16;6084695;23;20033;-69
2023/11/10 03:49:52;;;;;;;3.88;3.75;;;;;;;7.35;100.00;98992.28;6058940;23;20093;-69
2023/11/10 03:52:18;;;;;;;4.15;4.00;;;;;;;7.26;100.00;98971.22;6079104;23;20408;-68
2023/11/10 03:54:45;;;;;;;4.13;3.92;;;;;;;7.46;100.00;98998.59;6054103;23;20030;-69
2023/11/10 03:57:11;;;;;;;3.60;3.40;;;;;;;7.45;100.00;98995.13;6085356;23;20038;-70
2023/11/10 03:59:38;;;;;;;4.32;3.88;;;;;;;7.11;100.00;98926.09;6050587;23;20714;-70
2023/11/10 04:02:06;;;;;;;4.18;3.97;;;;;;;7.00;100.00;98900.72;6083212;23;20029;-68
2023/11/10 04:04:33;;;;;;;5.20;5.00;;;;;;;7.41;100.00;98966.75;6052635;23;20018;-69
2023/11/10 04:07:00;;;;;;;4.07;3.78;;;;;;;7.49;100.00;98983.53;6061368;23;20036;-69
2023/11/10 04:09:26;;;;;;;4.10;3.90;;;;;;;7.49;100.00;98990.56;6058427;23;20461;-68
2023/11/10 04:11:55;;;;;;;3.70;3.60;;;;;;;7.48;100.00;98984.50;6077569;23;20651;-68
2023/11/10 04:14:22;;;;;;;5.50;5.20;;;;;;;7.31;100.00;98974.34;6056133;23;20013;-70
2023/11/10 04:16:48;;;;;;;3.72;3.63;;;;;;;7.05;100.00;98942.16;6079135;23;20492;-69
2023/11/10 04:19:14;;;;;;;3.70;3.60;;;;;;;7.35;100.00;98987.06;6086124;23;20017;-70
2023/11/10 04:21:41;;;;;;;3.58;3.47;;;;;;;7.44;100.00;99001.31;6088853;23;20022;-70
2023/11/10 04:24:07;;;;;;;3.65;3.55;;;;;;;7.48;100.00;98997.56;6050951;23;20084;-69
2023/11/10 04:26:34;;;;;;;5.38;5.15;;;;;;;7.01;100.00;98912.81;6087133;23;20022;-69
2023/11/10 04:29:00;;;;;;;5.63;4.55;;;;;;;7.50;100.00;98997.47;6079505;23;20425;-68
2023/11/10 04:31:28;;;;;;;3.95;3.78;;;;;;;7.48;100.00;98986.28;6088249;23;21529;-68
2023/11/10 04:33:55;;;;;;;4.82;3.75;;;;;;;7.44;100.00;98990.00;6057072;23;20038;-69
2023/11/10 04:36:21;;;;;;;7.35;4.90;;;;;;;6.67;100.00;98870.72;6076195;23;20030;-68
2023/11/10 04:38:48;;;;;;;5.20;4.80;;;;;;;7.22;100.00;98960.16;6083726;23;20535;-69
2023/11/10 04:41:15;;;;;;;3.70;3.50;;;;;;;7.33;100.00;98973.28;6077215;23;20465;-69
2023/11/10 04:43:41;;;;;;;4.00;3.80;;;;;;;7.06;100.00;98928.19;6054822;23;20026;-68
2023/11/10 04:46:08;;;;;;;4.25;3.95;;;;;;;7.25;100.00;98961.69;6093041;23;20033;-67
2023/11/10 04:48:34;;;;;;;5.10;4.90;;;;;;;7.38;100.00;98992.09;6049621;23;20022;-69
2023/11/10 04:51:06;;;;;;;4.32;4.15;;;;;;;6.96;100.00;98913.13;6082095;23;20836;-69
2023/11/10 04:53:33;;;;;;;3.90;3.70;;;;;;;7.35;100.00;98971.41;6056270;23;20018;-68
2023/11/10 04:56:01;;;;;;;3.75;3.58;;;;;;;7.30;100.00;98957.03;6081551;23;20028;-69
2023/11/10 04:58:29;;;;;;;5.03;4.82;;;;;;;7.37;100.00;98960.88;6055144;23;20046;-69
2023/11/10 05:00:56;;;;;;;5.78;3.58;;;;;;;7.46;100.00;98962.88;6085712;23;20704;-69
2023/11/10 05:03:24;;;;;;;3.90;3.75;;;;;;;7.42;100.00;98950.13;6061757;23;20083;-69
2023/11/10 05:05:51;;;;;;;4.00;3.70;;;;;;;7.13;100.00;98904.19;6082481;23;20081;-69
2023/11/10 05:08:18;;;;;;;6.43;4.32;;;;;;;6.96;100.00;98874.03;6078458;23;19994;-70
2023/11/10 05:10:45;;;;;;;4.10;3.90;;;;;;;7.27;100.00;98928.53;6084022;23;20022;-70
2023/11/10 05:13:11;;;;;;;4.15;3.95;;;;;;;7.08;100.00;98916.72;6056156;23;20045;-69
2023/11/10 05:15:38;;;;;;;4.00;3.80;;;;;;;7.24;100.00;98962.66;6084752;23;20030;-69
2023/11/10 05:18:05;;;;;;;3.70;3.60;;;;;;;7.23;100.00;98968.81;6086103;23;20113;-70
2023/11/10 05:20:32;;;;;;;5.13;4.93;;;;;;;7.32;100.00;98976.03;6058386;23;20835;-70
2023/11/10 05:22:58;;;;;;;3.63;3.53;;;;;;;7.12;100.00;98954.69;6056974;23;20017;-69
2023/11/10 05:25:25;;;;;;;4.00;3.80;;;;;;;7.33;100.00;98993.34;6082697;23;20041;-70
2023/11/10 05:27:51;;;;;;;3.88;3.72;;;;;;;6.90;100.00;98929.19;6087364;23;20029;-69
2023/11/10 05:30:19;;;;;;;4.35;4.15;;;;;;;7.41;100.00;98995.44;6075237;23;20053;-68
2023/11/10 05:32:47;;;;;;;3.70;3.60;;;;;;;6.79;100.00;98905.56;6037758;23;20034;-69
2023/11/10 05:35:13;;;;;;;4.10;3.90;;;;;;;7.46;100.00;98996.00;6080750;23;20052;-69
2023/11/10 05:37:40;;;;;;;3.97;3.78;;;;;;;7.46;100.00;98983.78;6057460;23;20092;-68
2023/11/10 05:40:10;;;;;;;4.15;3.95;;;;;;;7.31;100.00;98966.50;6078692;23;20085;-68
2023/11/10 05:42:37;;;;;;;4.10;3.90;;;;;;;7.29;100.00;98950.94;6046940;23;20501;-70
2023/11/10 05:45:04;;;;;;;3.90;3.70;;;;;;;7.36;100.00;98943.56;6079200;23;20021;-70
2023/11/10 05:47:31;;;;;;;3.80;3.70;;;;;;;7.37;100.00;98940.00;6055941;23;20014;-69
2023/11/10 05:49:57;;;;;;;3.90;3.70;;;;;;;7.49;100.00;98952.22;6094589;23;20033;-69
2023/11/10 05:52:26;;;;;;;5.20;5.00;;;;;;;7.48;100.00;98961.00;6053821;23;20026;-68
2023/11/10 05:54:53;;;;;;;4.35;4.15;;;;;;;7.50;100.00;98964.34;6086117;23;20030;-70
2023/11/10 05:57:20;;;;;;;4.20;3.90;;;;;;;7.51;100.00;98955.56;6057503;23;20068;-69
2023/11/10 05:59:46;;;;;;;4.20;4.00;;;;;;;7.55;100.00;98957.03;6082337;23;20022;-69
2023/11/10 06:02:13;;;;;;;4.10;3.90;;;;;;;7.55;100.00;98954.41;6057082;23;20026;-69
2023/11/10 06:04:39;;;;;;;4.50;4.20;;;;;;;7.53;100.00;98960.69;6077127;23;20120;-68
2023/11/10 06:07:06;;;;;;;3.90;3.70;;;;;;;7.54;100.00;98944.09;6062788;23;20042;-68
2023/11/10 06:09:33;;;;;;;4.30;4.10;;;;;;;7.30;100.00;98910.06;6088450;23;20469;-69
2023/11/10 06:12:00;;;;;;;4.18;3.97;;;;;;;7.47;100.00;98927.19;6059140;23;20644;-69
2023/11/10 06:14:28;;;;;;;5.00;4.80;;;;;;;7.28;100.00;98898.91;6057672;23;20096;-69
2023/11/10 06:16:55;;;;;;;3.78;3.67;;;;;;;7.53;100.00;98940.63;6054127;23;20371;-69
2023/11/10 06:19:21;;;;;;;4.38;4.18;;;;;;;7.37;100.00;98896.47;6081585;23;20095;-69
2023/11/10 06:21:50;;;;;;;4.20;4.00;;;;;;;7.58;100.00;98903.81;6056437;23;20093;-69
2023/11/10 06:24:19;;;;;;;5.65;5.38;;;;;;;7.58;100.00;98914.25;6075323;23;20014;-69
2023/11/10 06:26:46;;;;;;;4.00;3.80;;;;;;;7.36;100.00;98865.28;6085681;23;20022;-72
2023/11/10 06:29:13;;;;;;;4.82;3.67;;;;;;;7.10;100.00;98820.94;6089317;23;20076;-68
2023/11/10 06:31:40;;;;;;;3.75;3.65;;;;;;;7.60;100.00;98896.69;6066684;23;20048;-68
2023/11/10 06:34:07;;;;;;;3.60;3.50;;;;;;;7.24;100.00;98842.66;6093192;23;20055;-69
2023/11/10 06:36:34;;;;;;;5.40;5.15;;;;;;;6.77;100.00;98787.53;6053470;23;20028;-69
2023/11/10 06:39:02;;;;;;;4.20;4.00;;;;;;;7.57;100.00;98892.50;6086070;23;20099;-71
2023/11/10 06:41:29;;;;;;;4.00;3.80;;;;;;;7.61;100.00;98902.75;6082360;23;20410;-69
2023/11/10 06:43:55;;;;;;;4.10;3.90;;;;;;;7.59;100.00;98877.56;6061482;23;21358;-69
2023/11/10 06:46:22;;;;;;;5.72;5.43;;;;;;;7.08;100.00;98801.13;6075010;23;20078;-69
2023/11/10 06:48:53;;;;;;;4.10;3.90;;;;;;;7.52;100.00;98880.72;6086244;23;20032;-70
2023/11/10 06:51:20;;;;;;;4.25;4.05;;;;;;;7.06;100.00;98814.25;6055133;23;20033;-71
2023/11/10 06:53:46;;;;;;;4.20;4.00;;;;;;;7.04;100.00;98842.22;6081800;23;20032;-71
2023/11/10 06:56:14;;;;;;;4.40;4.20;;;;;;;7.68;100.00;98937.94;6052736;23;20022;-70
2023/11/10 06:58:40;;;;;;;3.80;3.65;;;;;;;7.39;100.00;98893.75;6081263;23;20026;-70
2023/11/10 07:01:08;;;;;;;4.13;3.88;;;;;;;7.22;100.00;98841.88;6061545;23;20086;-70
2023/11/10 07:03:35;;;;;;;4.13;3.92;;;;;;;7.29;100.00;98840.53;6087644;23;20069;-70
2023/11/10 07:06:04;;;;;;;4.32;4.05;;;;;;;7.19;100.00;98809.03;6041712;23;20031;-71
2023/11/10 07:08:31;;;;;;;4.82;4.63;;;;;;;7.55;100.00;98855.22;6080132;23;20022;-70
2023/11/10 07:11:01;;;;;;;3.70;3.60;;;;;;;7.72;100.00;98841.00;6054567;23;20482;-70
2023/11/10 07:13:29;;;;;;;3.90;3.70;;;;;;;7.35;100.00;98764.44;6078319;23;20037;-72
2023/11/10 07:15:56;;;;;;;5.55;3.80;;;;;;;7.78;100.00;98821.47;6058789;23;20567;-70
2023/11/10 07:18:24;;;;;;;4.93;4.72;;;;;;;7.70;100.00;98806.34;6085474;23;20050;-71
2023/11/10 07:20:51;;;;;;;6.47;3.80;;;;;;;7.71;100.00;98805.38;6068651;23;20030;-70
2023/11/10 07:23:19;;;;;;;4.15;3.85;;;;;;;7.23;100.00;98721.78;6073159;23;20342;-70
2023/11/10 07:25:45;;;;;;;3.88;3.70;;;;;;;7.61;100.00;98782.66;6063575;23;20037;-69
2023/11/10 07:28:12;;;;;;;3.90;3.70;;;;;;;7.70;100.00;98797.69;6063287;23;20028;-70
2023/11/10 07:30:39;;;;;;;4.13;3.92;;;;;;;7.84;100.00;98821.03;6051682;23;20085;-70
2023/11/10 07:33:07;;;;;;;3.50;3.40;;;;;;;7.80;100.00;98822.19;6088776;23;20179;-69
2023/11/10 07:35:35;;;;;;;3.90;3.70;;;;;;;7.47;100.00;98766.19;6056257;23;20035;-70
2023/11/10 07:38:03;;;;;;;3.85;3.72;;;;;;;7.06;100.00;98685.63;6085667;23;20025;-71
2023/11/10 07:40:29;;;;;;;5.55;5.25;;;;;;;7.67;100.00;98767.38;6052879;23;20487;-71
2023/11/10 07:42:56;;;;;;;3.75;3.60;;;;;;;7.82;100.00;98764.63;6067617;23;20062;-72
2023/11/10 07:45:23;;;;;;;4.05;3.85;;;;;;;7.48;100.00;98707.84;6055621;23;20030;-71
2023/11/10 07:47:51;;;;;;;4.10;3.90;;;;;;;7.65;100.00;98735.34;6055161;23;20033;-70
2023/11/10 07:50:19;;;;;;;4.05;3.85;;;;;;;7.78;100.00;98764.03;6054366;23;20073;-71
2023/11/10 07:52:47;;;;;;;3.95;3.78;;;;;;;7.78;100.00;98780.53;6053274;23;21146;-72
2023/11/10 07:55:14;;;;;;;4.00;3.80;;;;;;;7.81;100.00;98787.28;6062794;23;20022;-70
2023/11/10 07:57:42;;;;;;;3.97;3.70;;;;;;;7.71;100.00;98781.88;6092119;23;20065;-71
2023/11/10 08:00:13;;;;;;;3.80;3.60;;;;;;;7.56;100.00;98747.28;6084832;23;20115;-72
2023/11/10 08:02:40;;;;;;;3.65;3.55;;;;;;;7.07;100.00;98638.53;6063175;23;20811;-71
2023/11/10 08:05:07;;;;;;;7.57;3.72;;;;;;;6.99;100.00;98633.88;6050675;23;20022;-72
2023/11/10 08:07:33;;;;;;;4.10;3.90;;;;;;;7.85;100.00;98780.06;6083514;23;20026;-71
2023/11/10 08:10:02;;;;;;;4.70;4.30;;;;;;;7.85;100.00;98791.34;6059021;23;20036;-70
2023/11/10 08:12:32;;;;;;;5.50;5.20;;;;;;;8.04;100.00;98817.00;6073105;23;20034;-70
2023/11/10 08:14:59;;;;;;;4.45;4.10;;;;;;;7.90;100.00;98763.13;6064691;23;20640;-70
2023/11/10 08:17:27;;;;;;;4.38;4.18;;;;;;;7.16;100.00;98621.44;6084036;23;20022;-71
2023/11/10 08:19:53;;;;;;;4.25;4.05;;;;;;;8.12;100.00;98738.91;6055246;23;21118;-71
2023/11/10 08:22:20;;;;;;;4.82;4.60;;;;;;;8.25;100.00;98736.19;6084133;23;21555;-71
2023/11/10 08:24:47;;;;;;;4.22;4.03;;;;;;;8.47;100.00;98748.53;6054866;23;20077;-72
2023/11/10 08:27:13;;;;;;;4.00;3.80;;;;;;;8.47;100.00;98730.25;6078659;23;20041;-71
2023/11/10 08:29:40;;;;;;;4.15;3.95;;;;;;;8.31;100.00;98688.72;6052171;23;20054;-71
2023/11/10 08:32:07;;;;;;;4.00;3.80;;;;;;;8.30;100.00;98683.59;6086552;23;20420;-71
2023/11/10 08:34:34;;;;;;;5.60;5.25;;;;;;;8.19;100.00;98669.53;6056227;23;20021;-72
2023/11/10 08:37:01;;;;;;;4.05;3.85;;;;;;;8.65;100.00;98746.31;6082375;23;20084;-72
2023/11/10 08:39:28;;;;;;;5.03;4.63;;;;;;;8.65;100.00;98738.47;6057615;23;20044;-70
2023/11/10 08:41:55;;;;;;;4.10;3.90;;;;;;;8.17;100.00;98681.06;6083331;23;20041;-71
2023/11/10 08:44:21;;;;;;;4.88;4.68;;;;;;;8.50;100.00;98737.88;6056353;23;20041;-71
2023/11/10 08:46:50;;;;;;;4.22;4.03;;;;;;;8.70;100.00;98756.44;6084618;23;20014;-71
2023/11/10 08:49:19;;;;;;;3.72;3.63;;;;;;;8.54;100.00;98735.88;6049514;23;21214;-71
2023/11/10 08:51:46;;;;;;;3.83;3.70;;;;;;;8.31;100.00;98714.84;6085620;23;20039;-71
2023/11/10 08:54:15;;;;;;;3.80;3.70;;;;;;;8.79;100.00;98751.34;6054521;23;20024;-71
2023/11/10 08:56:41;;;;;;;4.43;4.20;;;;;;;8.80;100.00;98720.81;6080400;23;20032;-71
2023/11/10 08:59:09;;;;;;;4.43;4.13;;;;;;;8.93;100.00;98710.22;6051042;23;20026;-72
2023/11/10 09:01:35;;;;;;;4.15;3.95;;;;;;;8.91;100.00;98644.09;6079984;23;20026;-72
2023/11/10 09:04:04;;;;;;;4.38;4.15;;;;;;;8.68;100.00;98594.44;6057891;23;20026;-72
2023/11/10 09:06:47;;;;;;;4.10;3.90;;;;;;;9.07;100.00;98654.19;6076454;23;20030;-73
2023/11/10 09:09:14;;;;;;;4.00;3.80;;;;;;;8.83;100.00;98609.88;6086762;23;20014;-73
2023/11/10 09:11:41;;;;;;;4.10;3.90;;;;;;;8.94;100.00;98589.78;6026761;23;20030;-73
2023/11/10 09:14:07;;;;;;;3.80;3.60;;;;;;;9.17;100.00;98605.41;6080025;23;20754;-72
2023/11/10 09:16:34;;;;;;;5.07;4.88;;;;;;;9.06;100.00;98579.25;6053521;23;20054;-72
2023/11/10 09:19:02;;;;;;;4.60;4.28;;;;;;;9.10;100.00;98565.84;6059545;23;20025;-73
2023/11/10 09:21:28;;;;;;;4.35;4.15;;;;;;;9.31;100.00;98604.31;6087152;23;20048;-72
2023/11/10 09:23:57;;;;;;;4.00;3.80;;;;;;;9.36;100.00;98599.53;6081032;23;20614;-72
2023/11/10 09:26:24;;;;;;;5.25;4.85;;;;;;;9.17;99.21;98530.34;6054218;23;20061;-71
2023/11/10 09:28:51;;;;;;;4.60;4.40;;;;;;;9.39;98.50;98542.50;6076385;23;20020;-71
2023/11/10 09:31:18;;;;;;;4.20;4.00;;;;;;;9.25;98.11;98529.72;6055209;23;20026;-70
2023/11/10 09:33:44;;;;;;;4.30;4.10;;;;;;;9.48;97.37;98546.19;6081028;23;20304;-71
2023/11/10 09:36:10;;;;;;;3.90;3.70;;;;;;;9.20;96.95;98492.66;6051827;23;20026;-72
2023/11/10 09:38:37;;;;;;;4.97;4.47;;;;;;;9.71;94.77;98512.00;6081216;23;20038;-71
2023/11/10 09:41:04;;;;;;;4.07;3.83;;;;;;;9.68;94.14;98486.91;6050617;23;20641;-70
2023/11/10 09:43:30;;;;;;;3.95;3.75;;;;;;;9.37;91.46;98392.59;6086771;23;20037;-69
2023/11/10 09:46:02;;;;;;;4.25;4.05;;;;;;;9.24;91.65;98375.44;6056837;23;20060;-70
2023/11/10 09:48:29;;;;;;;5.43;5.13;;;;;;;9.62;91.44;98455.97;6075074;23;20087;-69
2023/11/10 09:50:59;;;;;;;4.32;4.13;;;;;;;9.78;90.96;98445.03;6060721;23;20081;-71
2023/11/10 09:53:27;;;;;;;4.03;3.83;;;;;;;9.37;89.85;98347.28;6085317;23;20013;-73
2023/11/10 09:55:55;;;;;;;4.20;4.00;;;;;;;9.84;88.05;98362.47;6060011;23;20021;-72
2023/11/10 09:58:21;;;;;;;4.90;4.70;;;;;;;9.94;88.30;98400.03;6086642;23;20018;-71
2023/11/10 10:00:48;;;;;;;4.10;3.90;;;;;;;9.50;87.77;98334.81;6046985;23;20025;-70
2023/11/10 10:03:15;;;;;;;6.85;3.90;;;;;;;9.98;87.89;98402.25;6064383;23;20038;-70
2023/11/10 10:05:42;;;;;;;4.40;4.20;;;;;;;9.62;87.68;98332.91;6085008;23;20067;-70
2023/11/10 10:08:09;;;;;;;3.80;3.70;;;;;;;9.90;87.41;98373.28;6054633;23;20046;-71
2023/11/10 10:10:40;;;;;;;4.95;4.47;;;;;;;9.63;87.19;98341.59;6077706;23;20037;-70
2023/11/10 10:13:07;;;;;;;4.05;3.85;;;;;;;9.82;87.18;98373.09;6060393;23;20082;-70
2023/11/10 10:15:35;;;;;;;4.30;4.05;;;;;;;9.76;86.12;98334.34;6058818;23;20041;-70
2023/11/10 10:18:08;;;;;;;3.97;3.75;;;;;;;9.90;86.96;98370.66;6055079;23;20076;-70
2023/11/10 10:20:35;;;;;;;;;;;;;;;10.27;85.72;98387.56;6081028;23;20609;-71
2023/11/10 10:23:06;;;;;;;4.25;4.05;;;;;;;10.34;85.98;98388.72;6053277;23;19936;-71
2023/11/10 10:25:32;;;;;;;4.10;3.90;;;;;;;9.85;84.77;98277.72;6083743;23;20054;-70
2023/11/10 10:28:02;;;;;;;4.20;4.00;;;;;;;10.11;84.29;98319.94;6061645;23;20718;-69
2023/11/10 10:30:29;;;;;;;5.05;4.85;;;;;;;9.70;84.00;98219.63;6078982;23;20034;-69
2023/11/10 10:32:55;;;;;;;4.70;4.40;;;;;;;10.10;82.94;98258.84;6057273;23;20034;-71
2023/11/10 10:35:22;;;;;;;4.30;4.10;;;;;;;9.85;83.81;98275.09;6082455;23;20085;-71
2023/11/10 10:37:53;;;;;;;4.45;4.25;;;;;;;9.63;83.48;98227.22;6057836;23;20033;-71
2023/11/10 10:40:20;;;;;;;4.68;4.38;;;;;;;10.05;83.12;98310.84;6079690;23;20620;-69
2023/11/10 10:42:53;;;;;;;4.28;4.07;;;;;;;10.15;82.95;98309.06;6055821;23;20094;-70
2023/11/10 10:45:20;;;;;;;4.00;3.80;;;;;;;9.78;82.95;98266.91;6067076;23;20040;-71
2023/11/10 10:47:52;;;;;;;4.00;3.80;;;;;;;9.93;82.41;98276.06;6050596;23;20037;-68
2023/11/10 10:50:19;;;;;;;4.57;4.25;;;;;;;10.17;82.54;98304.50;6091173;23;20024;-70
2023/11/10 10:52:46;;;;;;;4.30;4.10;;;;;;;9.62;82.35;98182.81;6054081;23;20129;-71
2023/11/10 10:55:14;;;;;;;4.10;3.90;;;;;;;9.49;81.91;98180.47;6091118;23;20017;-70
2023/11/10 10:57:42;;;;;;;4.65;4.35;;;;;;;9.81;81.50;98237.03;6063715;23;20096;-70
2023/11/10 11:00:09;;;;;;;4.40;4.20;;;;;;;9.67;82.77;98257.41;6084404;23;20469;-70
2023/11/10 11:02:41;;;;;;;4.70;4.50;;;;;;;9.69;83.32;98296.56;6067748;23;20390;-69
2023/11/10 11:05:37;;;;;;;4.20;4.00;;;;;;;9.66;84.14;98355.28;6053637;23;20030;-69
2023/11/10 11:08:23;;;;;;;4.00;3.80;;;;;;;9.04;84.17;98269.84;6061437;23;20299;-69
2023/11/10 11:11:12;;;;;;;7.38;4.40;;;;;;;9.54;84.83;98378.09;6054349;23;20034;-69
2023/11/10 11:13:46;;;;;;;4.15;3.95;;;;;;;9.41;84.56;98355.72;6053365;23;20592;-71
2023/11/10 11:16:43;;;;;;;4.13;3.92;;;;;;;9.42;85.43;98388.75;6053417;23;20113;-70
2023/11/10 11:19:28;;;;;;;4.22;4.03;;;;;;;8.99;86.28;98353.94;6092126;23;20063;-71
2023/11/10 11:21:56;;;;;;;4.82;4.13;;;;;;;9.28;85.71;98388.16;6083611;23;20026;-70
2023/11/10 11:24:24;;;;;;;5.07;4.88;;;;;;;9.40;86.24;98430.78;6027986;23;20093;-72
2023/11/10 11:26:58;;;;;;;4.20;4.00;;;;;;;9.37;86.73;98437.09;6094194;23;20071;-71
2023/11/10 11:29:25;;;;;;;4.20;4.00;;;;;;;9.39;86.95;98452.69;6038460;23;20117;-72
2023/11/10 11:31:52;;;;;;;5.90;4.60;;;;;;;9.25;87.04;98421.59;6089856;23;20021;-70
2023/11/10 11:34:19;;;;;;;4.18;4.00;;;;;;;9.40;86.93;98441.25;6083183;23;20663;-70
2023/11/10 11:36:47;;;;;;;6.20;4.05;;;;;;;9.37;87.59;98467.69;6088092;23;20040;-71